createdAt,value
2023-01-18T00:01:11.857Z,96732.16
2023-01-18T00:03:40.005Z,96743.81
2023-01-18T00:06:12.901Z,96732.31
2023-01-18T00:08:42.143Z,96746.56
2023-01-18T00:11:15.779Z,96739.69
2023-01-18T00:13:43.316Z,96742.72
2023-01-18T00:16:14.868Z,96738.16
2023-01-18T00:18:42.497Z,96738.97
2023-01-18T00:21:12.031Z,96737.13
2023-01-18T00:23:39.413Z,96736.56
2023-01-18T00:26:11.007Z,96735.69
2023-01-18T00:28:39.762Z,96740.97
2023-01-18T00:31:20.992Z,96737.94
2023-01-18T00:33:50.611Z,96729.72
2023-01-18T00:36:19.654Z,96727.00
2023-01-18T00:38:51.369Z,96734.47
2023-01-18T00:41:20.972Z,96723.78
2023-01-18T00:43:48.036Z,96721.03
2023-01-18T00:46:24.890Z,96720.91
2023-01-18T00:48:54.640Z,96729.13
2023-01-18T00:51:25.252Z,96721.59
2023-01-18T00:53:52.545Z,96719.13
2023-01-18T00:56:22.860Z,96712.41
2023-01-18T00:58:50.126Z,96710.75
2023-01-18T01:01:17.654Z,96696.66
2023-01-18T01:04:03.406Z,96681.88
2023-01-18T01:06:45.001Z,96688.31
2023-01-18T01:09:26.515Z,96699.66
2023-01-18T01:12:13.527Z,96711.38
2023-01-18T01:15:04.439Z,96720.13
2023-01-18T01:17:53.591Z,96719.41
2023-01-18T01:20:40.730Z,96709.47
2023-01-18T01:23:32.959Z,96691.22
2023-01-18T01:26:13.292Z,96677.25
2023-01-18T01:28:50.370Z,96679.38
2023-01-18T01:31:20.139Z,96671.19
2023-01-18T01:33:50.509Z,96676.72
2023-01-18T01:36:27.820Z,96674.38
2023-01-18T01:38:55.698Z,96676.94
2023-01-18T01:41:32.437Z,96682.81
2023-01-18T01:44:20.777Z,96682.84
2023-01-18T01:47:12.978Z,96684.34
2023-01-18T01:49:50.249Z,96680.94
2023-01-18T01:52:27.433Z,96679.53
2023-01-18T01:55:18.259Z,96680.66
2023-01-18T01:57:55.504Z,96658.38
2023-01-18T02:00:24.527Z,96658.19
2023-01-18T02:03:07.437Z,96648.19
2023-01-18T02:05:43.770Z,96648.50
2023-01-18T02:08:13.467Z,96634.84
2023-01-18T02:10:40.761Z,96614.84
2023-01-18T02:13:11.079Z,96611.78
2023-01-18T02:16:19.019Z,96610.91
2023-01-18T02:19:13.481Z,96607.88
2023-01-18T02:21:53.290Z,96604.75
2023-01-18T02:25:08.259Z,96608.13
2023-01-18T02:27:51.320Z,96600.78
2023-01-18T02:30:34.075Z,96604.31
2023-01-18T02:33:26.652Z,96603.16
2023-01-18T02:36:01.038Z,96593.09
2023-01-18T02:38:41.426Z,96586.78
2023-01-18T02:41:56.490Z,96587.84
2023-01-18T02:44:57.942Z,96597.75
2023-01-18T02:47:27.502Z,96601.59
2023-01-18T02:49:57.395Z,96607.81
2023-01-18T02:52:47.183Z,96609.25
2023-01-18T02:55:45.580Z,96623.81
2023-01-18T02:58:23.245Z,96631.47
2023-01-18T03:01:38.303Z,96632.56
2023-01-18T03:04:20.490Z,96652.09
2023-01-18T03:07:02.385Z,96658.94
2023-01-18T03:09:31.123Z,96660.56
2023-01-18T03:12:22.030Z,96653.19
2023-01-18T03:15:13.949Z,96646.81
2023-01-18T03:17:53.775Z,96648.72
2023-01-18T03:20:34.211Z,96638.66
2023-01-18T03:23:38.811Z,96648.72
2023-01-18T03:26:10.723Z,96646.41
2023-01-18T03:29:03.054Z,96638.09
2023-01-18T03:32:12.740Z,96625.22
2023-01-18T03:34:49.486Z,96600.47
2023-01-18T03:37:27.393Z,96610.84
2023-01-18T03:40:08.107Z,96626.34
2023-01-18T03:43:03.329Z,96628.28
2023-01-18T03:45:46.598Z,96625.72
2023-01-18T03:48:15.029Z,96622.38
2023-01-18T03:51:02.328Z,96608.13
2023-01-18T03:53:39.384Z,96598.47
2023-01-18T03:56:37.574Z,96572.84
2023-01-18T03:59:06.830Z,96570.50
2023-01-18T04:01:34.313Z,96577.47
2023-01-18T04:04:02.709Z,96586.00
2023-01-18T04:06:33.006Z,96574.41
2023-01-18T04:08:59.999Z,96563.09
2023-01-18T04:11:27.648Z,96559.09
2023-01-18T04:13:54.770Z,96556.84
2023-01-18T04:16:22.028Z,96565.72
2023-01-18T04:18:49.327Z,96561.03
2023-01-18T04:21:16.503Z,96554.28
2023-01-18T04:23:43.493Z,96548.53
2023-01-18T04:26:11.880Z,96552.84
2023-01-18T04:28:38.892Z,96561.16
2023-01-18T04:31:06.099Z,96550.28
2023-01-18T04:33:33.311Z,96546.59
2023-01-18T04:36:00.956Z,96547.09
2023-01-18T04:38:28.260Z,96548.19
2023-01-18T04:40:55.602Z,96556.59
2023-01-18T04:43:22.519Z,96552.38
2023-01-18T04:45:55.353Z,96554.91
2023-01-18T04:48:23.910Z,96558.91
2023-01-18T04:50:52.015Z,96558.38
2023-01-18T04:53:20.095Z,96562.28
2023-01-18T04:55:47.665Z,96566.41
2023-01-18T04:58:15.164Z,96560.66
2023-01-18T05:00:42.455Z,96565.66
2023-01-18T05:03:11.512Z,96569.63
2023-01-18T05:05:39.355Z,96576.50
2023-01-18T05:08:06.408Z,96584.81
2023-01-18T05:10:33.783Z,96597.41
2023-01-18T05:13:01.309Z,96596.94
2023-01-18T05:15:28.733Z,96590.72
2023-01-18T05:17:56.002Z,96583.59
2023-01-18T05:20:35.450Z,96576.97
2023-01-18T05:23:11.085Z,96570.13
2023-01-18T05:25:55.836Z,96574.41
2023-01-18T05:28:26.480Z,96581.78
2023-01-18T05:30:55.090Z,96586.09
2023-01-18T05:33:23.160Z,96590.22
2023-01-18T05:35:55.464Z,96592.47
2023-01-18T05:38:23.689Z,96596.16
2023-01-18T05:40:54.742Z,96592.94
2023-01-18T05:43:26.293Z,96588.31
2023-01-18T05:45:54.316Z,96586.31
2023-01-18T05:48:21.714Z,96585.47
2023-01-18T05:50:49.123Z,96579.19
2023-01-18T05:53:21.286Z,96580.34
2023-01-18T05:56:00.585Z,96572.91
2023-01-18T05:58:29.705Z,96561.72
2023-01-18T06:00:57.113Z,96557.81
2023-01-18T06:03:25.502Z,96567.38
2023-01-18T06:05:53.127Z,96573.53
2023-01-18T06:08:20.944Z,96565.13
2023-01-18T06:10:56.927Z,96578.41
2023-01-18T06:13:27.939Z,96567.84
2023-01-18T06:16:01.636Z,96555.69
2023-01-18T06:18:32.773Z,96554.66
2023-01-18T06:21:02.449Z,96558.88
2023-01-18T06:23:31.163Z,96563.34
2023-01-18T06:25:59.115Z,96569.75
2023-01-18T06:28:26.832Z,96580.59
2023-01-18T06:30:56.394Z,96580.13
2023-01-18T06:33:24.792Z,96584.13
2023-01-18T06:35:52.803Z,96591.78
2023-01-18T06:38:20.590Z,96583.66
2023-01-18T06:40:47.971Z,96607.13
2023-01-18T06:43:16.143Z,96600.03
2023-01-18T06:45:43.456Z,96572.75
2023-01-18T06:48:10.497Z,96584.31
2023-01-18T06:50:37.544Z,96599.06
2023-01-18T06:53:04.796Z,96593.25
2023-01-18T06:55:31.837Z,96608.59
2023-01-18T06:57:59.176Z,96619.78
2023-01-18T07:00:26.306Z,96625.59
2023-01-18T07:02:53.511Z,96636.22
2023-01-18T07:05:21.247Z,96648.38
2023-01-18T07:07:48.476Z,96644.69
2023-01-18T07:10:16.746Z,96640.22
2023-01-18T07:12:48.477Z,96646.31
2023-01-18T07:15:22.052Z,96651.09
2023-01-18T07:17:50.690Z,96647.72
2023-01-18T07:20:19.804Z,96641.66
2023-01-18T07:22:52.821Z,96646.94
2023-01-18T07:25:20.710Z,96645.91
2023-01-18T07:27:51.795Z,96644.84
2023-01-18T07:30:19.327Z,96638.28
2023-01-18T07:32:52.995Z,96635.91
2023-01-18T07:35:27.460Z,96641.16
2023-01-18T07:37:54.814Z,96634.91
2023-01-18T07:41:30.060Z,96638.34
2023-01-18T07:43:57.818Z,96647.06
2023-01-18T07:46:26.143Z,96632.25
2023-01-18T07:48:54.003Z,96622.28
2023-01-18T07:51:22.475Z,96629.16
2023-01-18T07:53:56.349Z,96632.34
2023-01-18T07:56:25.758Z,96643.41
2023-01-18T07:58:53.616Z,96638.13
2023-01-18T08:01:22.840Z,96641.31
2023-01-18T08:03:51.201Z,96639.47
2023-01-18T08:06:27.649Z,96630.50
2023-01-18T08:08:56.599Z,96627.06
2023-01-18T08:11:25.847Z,96624.66
2023-01-18T08:13:53.535Z,96624.66
2023-01-18T08:16:20.704Z,96614.91
2023-01-18T08:18:51.635Z,96627.06
2023-01-18T08:21:18.855Z,96626.56
2023-01-18T08:23:46.193Z,96638.75
2023-01-18T08:26:14.916Z,96634.28
2023-01-18T08:28:44.721Z,96646.13
2023-01-18T08:31:19.799Z,96664.00
2023-01-18T08:33:48.898Z,96665.63
2023-01-18T08:36:23.722Z,96668.81
2023-01-18T08:38:57.440Z,96661.44
2023-01-18T08:41:30.790Z,96670.41
2023-01-18T08:43:59.754Z,96678.88
2023-01-18T08:46:30.144Z,96691.03
2023-01-18T08:49:02.468Z,96678.09
2023-01-18T08:51:29.604Z,96678.88
2023-01-18T08:53:57.279Z,96685.19
2023-01-18T08:56:25.365Z,96675.69
2023-01-18T08:58:52.767Z,96660.66
2023-01-18T09:01:23.003Z,96659.88
2023-01-18T09:03:54.218Z,96665.13
2023-01-18T09:06:22.107Z,96669.63
2023-01-18T09:08:50.631Z,96674.63
2023-01-18T09:11:18.670Z,96672.00
2023-01-18T09:13:59.895Z,96677.28
2023-01-18T09:16:29.819Z,96669.34
2023-01-18T09:18:58.231Z,96656.97
2023-01-18T09:21:27.950Z,96652.50
2023-01-18T09:23:55.391Z,96661.75
2023-01-18T09:26:22.371Z,96686.31
2023-01-18T09:28:52.870Z,96696.16
2023-01-18T09:31:27.878Z,96705.44
2023-01-18T09:34:12.978Z,96696.44
2023-01-18T09:36:44.422Z,96695.75
2023-01-18T09:39:11.715Z,96705.78
2023-01-18T09:41:49.638Z,96708.75
2023-01-18T09:44:31.884Z,96708.75
2023-01-18T09:47:23.344Z,96718.03
2023-01-18T09:50:05.341Z,96718.84
2023-01-18T09:53:14.046Z,96732.13
2023-01-18T09:56:00.085Z,96740.59
2023-01-18T09:59:34.466Z,96745.88
2023-01-18T10:02:16.994Z,96763.31
2023-01-18T10:04:51.796Z,96759.63
2023-01-18T10:07:23.069Z,96754.34
2023-01-18T10:09:56.604Z,96755.72
2023-01-18T10:12:55.851Z,96753.94
2023-01-18T10:15:34.581Z,96761.88
2023-01-18T10:18:02.011Z,96754.25
2023-01-18T10:20:50.279Z,96753.44
2023-01-18T10:23:49.859Z,96753.22
2023-01-18T10:26:48.901Z,96754.00
2023-01-18T10:29:45.826Z,96763.03
2023-01-18T10:32:20.923Z,96777.59
2023-01-18T10:34:51.884Z,96781.84
2023-01-18T10:37:31.636Z,96779.75
2023-01-18T10:40:07.609Z,96794.34
2023-01-18T10:42:49.517Z,96790.69
2023-01-18T10:45:26.732Z,96796.53
2023-01-18T10:47:56.610Z,96795.25
2023-01-18T10:50:37.300Z,96798.69
2023-01-18T10:53:23.075Z,96811.91
2023-01-18T10:55:59.727Z,96813.53
2023-01-18T10:58:39.687Z,96830.97
2023-01-18T11:01:29.095Z,96826.25
2023-01-18T11:04:28.810Z,96820.97
2023-01-18T11:06:59.785Z,96818.47
2023-01-18T11:09:47.336Z,96827.22
2023-01-18T11:12:38.735Z,96827.75
2023-01-18T11:15:14.957Z,96835.47
2023-01-18T11:17:58.423Z,96840.25
2023-01-18T11:20:35.522Z,96855.31
2023-01-18T11:23:41.949Z,96851.94
2023-01-18T11:26:19.531Z,96857.22
2023-01-18T11:29:14.655Z,96862.19
2023-01-18T11:31:48.279Z,96868.75
2023-01-18T11:34:29.646Z,96874.78
2023-01-18T11:37:00.736Z,96871.03
2023-01-18T11:39:37.361Z,96876.81
2023-01-18T11:42:22.982Z,96882.09
2023-01-18T11:45:22.543Z,96887.44
2023-01-18T11:48:46.598Z,96886.91
2023-01-18T11:51:31.079Z,96898.50
2023-01-18T11:54:26.575Z,96904.59
2023-01-18T11:57:02.630Z,96903.38
2023-01-18T11:59:41.773Z,96915.06
2023-01-18T12:02:56.799Z,96931.25
2023-01-18T12:05:53.066Z,96943.91
2023-01-18T12:08:49.224Z,96949.19
2023-01-18T12:11:48.054Z,96936.19
2023-01-18T12:15:02.289Z,96921.97
2023-01-18T12:17:46.679Z,96941.00
2023-01-18T12:20:31.707Z,96951.09
2023-01-18T12:23:30.127Z,96960.88
2023-01-18T12:26:13.124Z,96968.56
2023-01-18T12:28:55.496Z,96975.47
2023-01-18T12:31:58.923Z,96978.09
2023-01-18T12:34:55.389Z,96977.03
2023-01-18T12:37:44.457Z,96976.91
2023-01-18T12:40:36.689Z,96986.28
2023-01-18T12:43:57.596Z,96996.75
2023-01-18T12:46:59.238Z,96990.88
2023-01-18T12:49:34.243Z,96997.97
2023-01-18T12:52:18.148Z,97000.81
2023-01-18T12:54:51.978Z,97011.06
2023-01-18T12:57:22.500Z,97016.72
2023-01-18T13:00:01.362Z,97016.78
2023-01-18T13:02:41.767Z,97034.06
2023-01-18T13:05:36.894Z,97045.81
2023-01-18T13:08:44.964Z,97056.38
2023-01-18T13:11:25.534Z,97057.19
2023-01-18T13:14:07.186Z,97078.38
2023-01-18T13:16:46.678Z,97075.47
2023-01-18T13:19:24.848Z,97078.06
2023-01-18T13:22:19.595Z,97090.75
2023-01-18T13:25:42.972Z,97105.03
2023-01-18T13:28:23.323Z,97108.16
2023-01-18T13:31:01.984Z,97120.28
2023-01-18T13:33:47.631Z,97132.97
2023-01-18T13:36:20.296Z,97137.94
2023-01-18T13:39:01.126Z,97146.13
2023-01-18T13:41:30.699Z,97148.22
2023-01-18T13:44:04.572Z,97153.94
2023-01-18T13:46:36.591Z,97161.72
2023-01-18T13:49:44.900Z,97178.56
2023-01-18T13:52:33.413Z,97183.06
2023-01-18T13:55:23.035Z,97180.72
2023-01-18T13:57:55.620Z,97181.84
2023-01-18T14:00:25.551Z,97194.56
2023-01-18T14:03:03.872Z,97203.09
2023-01-18T14:05:42.462Z,97219.53
2023-01-18T14:08:25.061Z,97215.75
2023-01-18T14:10:56.518Z,97221.03
2023-01-18T14:13:52.882Z,97230.84
2023-01-18T14:16:29.680Z,97236.94
2023-01-18T14:19:19.448Z,97240.63
2023-01-18T14:22:28.723Z,97252.50
2023-01-18T14:25:29.742Z,97251.13
2023-01-18T14:28:13.462Z,97252.97
2023-01-18T14:30:44.505Z,97252.16
2023-01-18T14:33:17.345Z,97252.66
2023-01-18T14:35:58.923Z,97267.72
2023-01-18T14:38:27.230Z,97272.22
2023-01-18T14:40:59.991Z,97282.81
2023-01-18T14:43:34.481Z,97285.19
2023-01-18T14:46:17.481Z,97287.63
2023-01-18T14:48:58.191Z,97293.94
2023-01-18T14:51:28.448Z,97295.47
2023-01-18T14:54:00.526Z,97308.16
2023-01-18T14:56:41.101Z,97311.81
2023-01-18T14:59:31.117Z,97318.38
2023-01-18T15:02:02.711Z,97324.94
2023-01-18T15:04:38.991Z,97346.38
2023-01-18T15:07:13.599Z,97343.94
2023-01-18T15:09:44.393Z,97356.59
2023-01-18T15:12:22.536Z,97359.25
2023-01-18T15:14:51.288Z,97369.84
2023-01-18T15:17:25.189Z,97366.06
2023-01-18T15:19:59.718Z,97374.00
2023-01-18T15:22:34.338Z,97376.06
2023-01-18T15:25:03.039Z,97381.38
2023-01-18T15:27:32.721Z,97388.50
2023-01-18T15:30:02.313Z,97387.69
2023-01-18T15:32:33.018Z,97381.25
2023-01-18T15:35:02.339Z,97392.63
2023-01-18T15:37:37.396Z,97400.25
2023-01-18T15:40:13.728Z,97401.81
2023-01-18T15:43:21.855Z,97402.63
2023-01-18T15:45:54.643Z,97408.16
2023-01-18T15:48:23.295Z,97412.91
2023-01-18T15:50:55.118Z,97420.25
2023-01-18T15:53:32.676Z,97409.09
2023-01-18T15:56:07.540Z,97414.63
2023-01-18T15:58:50.098Z,97422.44
2023-01-18T16:01:31.700Z,97432.22
2023-01-18T16:04:22.097Z,97436.38
2023-01-18T16:06:49.680Z,97426.47
2023-01-18T16:09:22.962Z,97437.28
2023-01-18T16:11:54.368Z,97449.94
2023-01-18T16:14:46.194Z,97450.38
2023-01-18T16:17:22.875Z,97455.34
2023-01-18T16:19:52.867Z,97463.47
2023-01-18T16:22:35.846Z,97468.44
2023-01-18T16:25:10.048Z,97473.38
2023-01-18T16:27:55.321Z,97474.63
2023-01-18T16:30:41.008Z,97486.47
2023-01-18T16:33:18.547Z,97497.03
2023-01-18T16:35:46.528Z,97501.53
2023-01-18T16:38:16.623Z,97505.19
2023-01-18T16:40:48.862Z,97506.00
2023-01-18T16:43:18.915Z,97517.41
2023-01-18T16:45:49.668Z,97511.28
2023-01-18T16:48:21.391Z,97524.72
2023-01-18T16:50:49.379Z,97532.31
2023-01-18T16:53:17.748Z,97531.75
2023-01-18T16:55:45.185Z,97530.56
2023-01-18T16:58:15.157Z,97537.34
2023-01-18T17:01:00.716Z,97551.91
2023-01-18T17:03:28.473Z,97548.66
2023-01-18T17:05:55.553Z,97554.41
2023-01-18T17:08:22.793Z,97552.81
2023-01-18T17:10:51.870Z,97555.31
2023-01-18T17:13:18.864Z,97560.59
2023-01-18T17:15:46.076Z,97562.22
2023-01-18T17:18:24.007Z,97569.09
2023-01-18T17:20:52.265Z,97571.16
2023-01-18T17:23:19.658Z,97575.88
2023-01-18T17:25:47.415Z,97579.09
2023-01-18T17:28:17.904Z,97590.09
2023-01-18T17:30:49.698Z,97595.59
2023-01-18T17:33:23.874Z,97589.16
2023-01-18T17:35:54.461Z,97582.94
2023-01-18T17:38:25.012Z,97598.19
2023-01-18T17:40:53.789Z,97598.63
2023-01-18T17:43:33.317Z,97603.34
2023-01-18T17:46:06.203Z,97611.69
2023-01-18T17:48:34.008Z,97623.28
2023-01-18T17:51:01.202Z,97633.84
2023-01-18T17:53:28.300Z,97632.44
2023-01-18T17:55:55.648Z,97638.97
2023-01-18T17:58:22.797Z,97637.81
2023-01-18T18:00:50.679Z,97629.88
2023-01-18T18:03:17.838Z,97626.81
2023-01-18T18:05:45.223Z,97633.69
2023-01-18T18:08:12.250Z,97627.81
2023-01-18T18:10:43.696Z,97634.94
2023-01-18T18:13:10.671Z,97638.97
2023-01-18T18:15:37.934Z,97645.88
2023-01-18T18:18:07.456Z,97641.03
2023-01-18T18:20:38.613Z,97651.16
2023-01-18T18:23:05.704Z,97658.06
2023-01-18T18:25:33.857Z,97665.19
2023-01-18T18:28:00.782Z,97673.31
2023-01-18T18:30:28.251Z,97681.22
2023-01-18T18:32:55.248Z,97685.34
2023-01-18T18:35:25.856Z,97695.53
2023-01-18T18:37:55.423Z,97694.72
2023-01-18T18:40:24.373Z,97700.81
2023-01-18T18:43:07.548Z,97711.75
2023-01-18T18:45:35.013Z,97716.66
2023-01-18T18:48:06.349Z,97722.72
2023-01-18T18:50:33.583Z,97735.34
2023-01-18T18:53:01.049Z,97728.25
2023-01-18T18:55:29.844Z,97730.06
2023-01-18T18:57:56.812Z,97723.53
2023-01-18T19:00:25.478Z,97728.25
2023-01-18T19:03:00.986Z,97730.50
2023-01-18T19:05:31.896Z,97727.28
2023-01-18T19:07:59.221Z,97718.75
2023-01-18T19:10:30.166Z,97728.72
2023-01-18T19:12:58.173Z,97745.59
2023-01-18T19:15:25.857Z,97749.84
2023-01-18T19:17:53.173Z,97750.88
2023-01-18T19:20:21.274Z,97756.97
2023-01-18T19:22:50.007Z,97759.81
2023-01-18T19:25:18.089Z,97761.84
2023-01-18T19:27:45.660Z,97766.53
2023-01-18T19:30:18.940Z,97762.72
2023-01-18T19:32:51.260Z,97759.69
2023-01-18T19:35:20.292Z,97767.25
2023-01-18T19:37:48.396Z,97766.66
2023-01-18T19:40:17.113Z,97779.47
2023-01-18T19:42:44.479Z,97771.78
2023-01-18T19:45:19.724Z,97782.75
2023-01-18T19:47:55.857Z,97791.25
2023-01-18T19:50:23.873Z,97785.97
2023-01-18T19:52:51.176Z,97793.53
2023-01-18T19:55:19.001Z,97793.53
2023-01-18T19:57:45.944Z,97806.91
2023-01-18T20:00:16.536Z,97815.25
2023-01-18T20:02:44.381Z,97824.81
2023-01-18T20:05:11.762Z,97825.03
2023-01-18T20:07:40.284Z,97838.41
2023-01-18T20:10:08.826Z,97837.63
2023-01-18T20:12:36.030Z,97839.28
2023-01-18T20:15:06.138Z,97843.34
2023-01-18T20:17:34.463Z,97857.56
2023-01-18T20:20:03.045Z,97859.16
2023-01-18T20:22:30.991Z,97854.31
2023-01-18T20:24:59.115Z,97848.59
2023-01-18T20:27:27.279Z,97845.38
2023-01-18T20:29:54.528Z,97845.38
2023-01-18T20:32:22.230Z,97849.06
2023-01-18T20:34:49.491Z,97848.00
2023-01-18T20:37:16.656Z,97858.56
2023-01-18T20:39:44.154Z,97855.13
2023-01-18T20:42:11.121Z,97855.56
2023-01-18T20:44:38.546Z,97851.50
2023-01-18T20:47:05.742Z,97853.53
2023-01-18T20:49:38.305Z,97849.28
2023-01-18T20:52:07.536Z,97858.22
2023-01-18T20:54:36.669Z,97853.16
2023-01-18T20:57:06.762Z,97858.63
2023-01-18T20:59:35.063Z,97858.03
2023-01-18T21:02:03.849Z,97860.88
2023-01-18T21:04:31.489Z,97874.25
2023-01-18T21:06:58.928Z,97877.53
2023-01-18T21:09:26.310Z,97873.84
2023-01-18T21:11:53.419Z,97880.75
2023-01-18T21:14:21.038Z,97886.03
2023-01-18T21:16:48.346Z,97886.03
2023-01-18T21:19:16.199Z,97897.41
2023-01-18T21:21:44.559Z,97879.53
2023-01-18T21:24:11.943Z,97886.84
2023-01-18T21:26:39.166Z,97884.81
2023-01-18T21:29:06.392Z,97887.88
2023-01-18T21:31:33.737Z,97892.56
2023-01-18T21:34:00.928Z,97896.22
2023-01-18T21:36:30.403Z,97897.66
2023-01-18T21:38:57.766Z,97919.75
2023-01-18T21:41:43.281Z,97918.75
2023-01-18T21:44:30.862Z,97919.34
2023-01-18T21:46:59.244Z,97918.13
2023-01-18T21:50:15.454Z,97920.34
2023-01-18T21:52:53.577Z,97924.38
2023-01-18T21:55:22.399Z,97927.41
2023-01-18T21:58:09.410Z,97935.53
2023-01-18T22:00:38.803Z,97961.91
2023-01-18T22:03:06.579Z,97969.19
2023-01-18T22:05:34.085Z,97980.38
2023-01-18T22:08:01.466Z,97986.66
2023-01-18T22:10:29.127Z,97991.94
2023-01-18T22:12:56.650Z,97988.28
2023-01-18T22:15:24.170Z,97988.28
2023-01-18T22:17:51.134Z,97986.66
2023-01-18T22:20:18.840Z,97986.88
2023-01-18T22:22:46.434Z,97974.91
2023-01-18T22:25:13.988Z,97976.13
2023-01-18T22:27:40.970Z,97983.44
2023-01-18T22:30:09.630Z,97987.91
2023-01-18T22:32:36.680Z,97987.91
2023-01-18T22:35:04.248Z,98000.28
2023-01-18T22:37:31.374Z,98001.09
2023-01-18T22:39:58.634Z,98012.22
2023-01-18T22:42:27.800Z,98010.41
2023-01-18T22:44:55.149Z,98011.00
2023-01-18T22:47:22.451Z,98012.22
2023-01-18T22:49:49.859Z,98017.50
2023-01-18T22:52:17.174Z,98023.59
2023-01-18T22:54:44.668Z,98024.81
2023-01-18T22:57:11.691Z,98030.91
2023-01-18T22:59:39.088Z,98024.81
2023-01-18T23:02:06.006Z,98036.97
2023-01-18T23:04:34.315Z,98041.66
2023-01-18T23:07:01.458Z,98040.63
2023-01-18T23:09:31.776Z,98038.19
2023-01-18T23:11:58.897Z,98040.63
2023-01-18T23:14:44.577Z,98028.47
2023-01-18T23:17:31.246Z,98026.03
2023-01-18T23:19:58.827Z,98032.53
2023-01-18T23:22:26.396Z,98037.41
2023-01-18T23:24:53.945Z,98047.94
2023-01-18T23:27:21.056Z,98051.59
2023-01-18T23:29:55.126Z,98055.44
2023-01-18T23:32:27.843Z,98057.66
2023-01-18T23:34:55.477Z,98055.03
2023-01-18T23:37:22.995Z,98049.75
2023-01-18T23:40:09.342Z,98049.56
2023-01-18T23:42:55.082Z,98047.13
2023-01-18T23:45:41.140Z,98048.75
2023-01-18T23:48:39.272Z,98052.00
2023-01-18T23:51:27.704Z,98051.59
2023-01-18T23:54:15.657Z,98044.69
2023-01-18T23:56:45.380Z,98039.22
2023-01-18T23:59:14.045Z,98040.84
